Time;durP1;ratioP1;P1;durP2;ratioP2;P2;SDS_P1;SDS_P2;PMS_P1;PMS_P2;Temp;Humidity;BMP_temperature;BMP_pressure;BME280_temperature;BME280_humidity;BME280_pressure;Samples;Min_cycle;Max_cycle;Signal;HPM_P1;HPM_P2
2024/02/05 00:01:12;;;;;;;2.90;1.90;;;;;;;10.51;84.27;97790.81;107747;1256;72462;-62
2024/02/05 00:04:23;;;;;;;4.90;2.00;;;;;;;10.61;81.76;97778.32;107778;1256;60357;-62
2024/02/05 00:07:47;;;;;;;3.40;1.50;;;;;;;10.49;83.44;97773.73;107894;1256;59688;-62
2024/02/05 00:11:19;;;;;;;3.60;2.00;;;;;;;10.50;83.25;97777.52;107779;1256;74039;-62
2024/02/05 00:14:27;;;;;;;6.00;2.30;;;;;;;10.72;80.32;97767.89;108180;1255;70376;-62
2024/02/05 00:17:32;;;;;;;4.40;2.20;;;;;;;10.53;81.19;97761.92;107874;1253;72310;-62
2024/02/05 00:20:33;;;;;;;2.10;1.90;;;;;;;10.47;82.22;97760.95;107798;1253;61009;-62
2024/02/05 00:23:39;;;;;;;6.70;2.60;;;;;;;10.39;82.88;97755.58;107930;1254;59720;-61
2024/02/05 00:26:53;;;;;;;3.90;2.00;;;;;;;10.56;81.46;97746.98;108336;1250;72851;-62
2024/02/05 00:30:04;;;;;;;7.90;2.80;;;;;;;10.11;86.46;97737.92;108374;1250;69580;-63
2024/02/05 00:33:15;;;;;;;5.20;2.50;;;;;;;10.06;87.92;97740.34;108380;1253;72295;-62
2024/02/05 00:36:28;;;;;;;4.30;2.60;;;;;;;10.19;87.50;97737.70;108355;1253;60561;-62
2024/02/05 00:39:43;;;;;;;4.40;2.60;;;;;;;10.11;89.92;97733.20;108389;1250;60101;-63
2024/02/05 00:43:07;;;;;;;8.10;2.90;;;;;;;10.36;89.22;97730.34;108416;1250;74471;-62
2024/02/05 00:46:18;;;;;;;5.80;3.00;;;;;;;10.28;89.81;97725.36;108371;1251;70334;-62
2024/02/05 00:49:30;;;;;;;3.80;2.50;;;;;;;10.16;91.12;97721.96;108356;1252;72351;-62
2024/02/05 00:52:41;;;;;;;6.50;3.10;;;;;;;10.21;91.43;97716.33;108401;1250;60600;-62
2024/02/05 00:55:52;;;;;;;5.90;2.60;;;;;;;10.16;92.87;97712.12;108324;1252;59730;-62
2024/02/05 00:59:06;;;;;;;4.10;2.30;;;;;;;10.40;89.75;97702.92;108418;1250;74240;-62
2024/02/05 01:02:00;;;;;;;5.50;2.50;;;;;;;10.33;90.38;97697.66;108424;1251;70000;-62
2024/02/05 01:05:05;;;;;;;6.50;2.70;;;;;;;10.39;90.14;97685.30;108375;1253;71212;-62
2024/02/05 01:08:19;;;;;;;6.00;2.50;;;;;;;10.31;90.42;97677.48;108344;1256;61703;-62
2024/02/05 01:11:33;;;;;;;5.30;2.50;;;;;;;10.43;88.54;97675.39;108389;1250;59797;-62
2024/02/05 01:14:47;;;;;;;4.20;2.40;;;;;;;10.41;89.14;97676.56;108416;1254;74143;-62
2024/02/05 01:18:02;;;;;;;4.20;2.40;;;;;;;10.50;87.87;97674.33;108381;1253;69174;-62
2024/02/05 01:21:10;;;;;;;5.60;2.80;;;;;;;10.54;86.46;97665.97;108328;1253;72561;-62
2024/02/05 01:24:21;;;;;;;5.90;3.20;;;;;;;10.65;86.15;97667.12;108055;1257;60686;-63
2024/02/05 01:28:07;;;;;;;3.30;2.30;;;;;;;10.50;87.23;97664.23;108381;1253;61059;-62
2024/02/05 01:31:21;;;;;;;5.00;2.30;;;;;;;10.50;86.79;97661.52;108233;1253;73694;-62
2024/02/05 01:34:32;;;;;;;4.30;2.60;;;;;;;10.48;88.22;97650.55;108139;1253;69369;-63
2024/02/05 01:37:43;;;;;;;4.50;2.40;;;;;;;10.45;87.34;97647.23;108220;1253;72728;-63
2024/02/05 01:40:34;;;;;;;4.90;2.50;;;;;;;10.50;88.68;97645.30;108316;1253;61558;-63
2024/02/05 01:43:11;;;;;;;5.10;2.30;;;;;;;10.61;86.21;97642.92;108078;1253;59602;-63
2024/02/05 01:46:17;;;;;;;4.20;2.20;;;;;;;10.76;85.08;97647.55;108145;1253;73888;-63
2024/02/05 01:49:28;;;;;;;4.80;2.40;;;;;;;10.56;86.15;97642.90;108126;1252;69227;-62
2024/02/05 01:52:41;;;;;;;3.60;2.50;;;;;;;10.52;87.20;97637.43;108368;1253;72483;-63
2024/02/05 01:55:32;;;;;;;5.40;2.50;;;;;;;10.60;85.77;97632.66;108240;1253;60908;-63
2024/02/05 01:58:38;;;;;;;4.30;2.50;;;;;;;10.67;84.75;97630.51;108371;1252;59802;-63
2024/02/05 02:02:07;;;;;;;5.20;2.80;;;;;;;10.73;82.65;97620.77;108267;1253;73599;-62
2024/02/05 02:05:19;;;;;;;4.40;2.30;;;;;;;10.61;83.92;97618.70;108328;1253;69233;-63
2024/02/05 02:08:30;;;;;;;5.70;2.10;;;;;;;10.72;83.08;97610.17;108304;1253;72479;-63
2024/02/05 02:11:41;;;;;;;3.70;2.20;;;;;;;10.61;83.45;97603.45;108177;1252;61252;-63
2024/02/05 02:14:52;;;;;;;3.80;2.10;;;;;;;10.69;82.23;97610.03;108128;1253;60718;-63
2024/02/05 02:18:03;;;;;;;3.70;1.80;;;;;;;10.64;83.77;97599.74;108350;1251;73647;-62
2024/02/05 02:21:15;;;;;;;3.90;2.20;;;;;;;10.58;82.93;97593.40;108345;1251;70188;-62
2024/02/05 02:24:26;;;;;;;4.70;2.30;;;;;;;10.79;81.91;97587.21;108362;1251;72919;-63
2024/02/05 02:27:37;;;;;;;3.00;2.30;;;;;;;10.82;80.53;97577.50;108378;1256;59897;-63
2024/02/05 02:30:50;;;;;;;3.60;2.20;;;;;;;10.72;80.84;97573.20;108408;1251;59743;-63
2024/02/05 02:33:43;;;;;;;4.90;2.50;;;;;;;10.66;81.08;97569.63;108412;1251;75083;-68
2024/02/05 02:36:55;;;;;;;4.10;2.40;;;;;;;10.79;80.45;97568.83;108425;1251;69222;-63
2024/02/05 02:40:00;;;;;;;5.70;2.40;;;;;;;10.71;82.00;97579.92;108364;1253;72371;-62
2024/02/05 02:42:55;;;;;;;5.10;2.50;;;;;;;10.79;80.76;97573.18;108443;1251;60813;-62
2024/02/05 02:46:00;;;;;;;4.50;2.30;;;;;;;10.87;80.78;97569.45;108198;1251;60703;-63
2024/02/05 02:49:25;;;;;;;3.60;2.10;;;;;;;10.87;80.47;97570.27;108364;1253;74106;-62
2024/02/05 02:53:07;;;;;;;5.30;2.40;;;;;;;10.76;82.03;97561.52;108488;1251;69842;-62
2024/02/05 02:56:21;;;;;;;4.20;2.40;;;;;;;10.74;81.55;97564.26;108390;1253;72405;-62
2024/02/05 02:59:51;;;;;;;5.70;2.80;;;;;;;11.08;79.13;97555.02;108326;1253;61613;-62
2024/02/05 03:02:47;;;;;;;3.00;2.30;;;;;;;10.86;80.31;97548.30;108397;1254;60161;-63
2024/02/05 03:05:34;;;;;;;4.10;2.20;;;;;;;10.78;81.11;97552.60;108498;1253;72897;-62
2024/02/05 03:08:39;;;;;;;4.70;2.50;;;;;;;10.74;82.14;97549.76;108370;1251;69713;-63
2024/02/05 03:11:51;;;;;;;5.60;2.20;;;;;;;10.94;80.05;97539.60;108395;1253;72377;-63
2024/02/05 03:15:32;;;;;;;4.30;2.40;;;;;;;10.81;80.90;97526.23;108514;1251;60756;-64
2024/02/05 03:19:03;;;;;;;5.00;2.10;;;;;;;10.77;81.09;97527.61;108387;1254;59758;-63
2024/02/05 03:22:18;;;;;;;5.20;2.20;;;;;;;10.77;81.81;97530.04;108388;1251;73356;-63
2024/02/05 03:25:29;;;;;;;4.60;2.50;;;;;;;10.80;82.16;97510.02;108411;1251;69601;-63
2024/02/05 03:28:40;;;;;;;2.80;2.00;;;;;;;10.66;83.22;97507.95;108337;1253;72370;-62
2024/02/05 03:31:51;;;;;;;4.90;2.30;;;;;;;10.64;83.22;97499.90;108364;1252;61536;-63
2024/02/05 03:35:20;;;;;;;6.20;2.20;;;;;;;10.68;83.70;97496.23;108402;1253;60446;-62
2024/02/05 03:38:31;;;;;;;6.70;2.50;;;;;;;10.85;82.47;97491.58;108349;1251;74026;-63
2024/02/05 03:41:42;;;;;;;4.90;2.50;;;;;;;10.79;82.64;97494.72;108386;1256;70158;-63
2024/02/05 03:45:24;;;;;;;5.80;2.40;;;;;;;10.62;84.28;97482.65;108460;1251;72344;-62
2024/02/05 03:48:36;;;;;;;5.90;2.20;;;;;;;10.81;82.29;97478.57;108438;1253;61199;-63
2024/02/05 03:51:42;;;;;;;5.20;2.10;;;;;;;10.87;78.72;97478.98;108412;1252;59814;-63
2024/02/05 03:54:53;;;;;;;9.50;2.80;;;;;;;11.05;77.17;97489.51;108355;1253;73635;-62
2024/02/05 03:58:05;;;;;;;7.50;2.30;;;;;;;10.96;79.45;97518.61;108366;1251;69150;-63
2024/02/05 04:01:14;;;;;;;4.60;1.70;;;;;;;11.15;80.90;97586.20;108431;1252;72380;-62
2024/02/05 04:04:25;;;;;;;1.00;0.70;;;;;;;10.90;77.47;97583.63;108328;1252;60741;-63
2024/02/05 04:07:36;;;;;;;0.80;0.50;;;;;;;10.80;75.93;97588.38;108347;1251;59681;-63
2024/02/05 04:10:10;;;;;;;0.60;0.50;;;;;;;10.51;77.47;97597.37;108402;1251;74037;-63
2024/02/05 04:13:16;;;;;;;0.80;0.60;;;;;;;10.35;78.87;97592.11;108183;1253;69745;-63
2024/02/05 04:16:28;;;;;;;0.40;0.40;;;;;;;10.26;80.21;97578.76;108510;1255;71664;-63
2024/02/05 04:19:30;;;;;;;2.20;0.70;;;;;;;10.17;81.47;97581.70;108299;1253;59601;-64
2024/02/05 04:22:36;;;;;;;1.10;0.50;;;;;;;10.01;83.03;97580.90;108393;1251;58627;-67
2024/02/05 04:25:47;;;;;;;2.20;0.80;;;;;;;9.94;83.91;97578.30;108331;1253;73525;-64
2024/02/05 04:29:03;;;;;;;2.20;1.00;;;;;;;9.91;85.10;97573.79;108501;1253;69700;-63
2024/02/05 04:32:14;;;;;;;3.50;1.70;;;;;;;9.89;85.95;97571.96;108392;1252;72250;-63
2024/02/05 04:35:26;;;;;;;2.50;1.10;;;;;;;9.84;87.37;97560.61;108341;1252;61839;-62
2024/02/05 04:38:31;;;;;;;2.40;1.10;;;;;;;9.76;90.41;97551.95;108435;1253;59803;-62
2024/02/05 04:41:45;;;;;;;1.10;1.00;;;;;;;9.54;93.44;97552.79;108374;1251;74550;-67
2024/02/05 04:44:56;;;;;;;1.70;1.10;;;;;;;9.73;94.58;97550.02;108346;1251;70118;-62
2024/02/05 04:48:08;;;;;;;1.20;1.10;;;;;;;9.80;94.73;97554.30;108398;1251;72904;-62
2024/02/05 04:51:21;;;;;;;1.70;1.10;;;;;;;10.02;92.57;97554.05;108380;1253;59869;-62
2024/02/05 04:54:33;;;;;;;2.50;1.10;;;;;;;9.93;91.96;97562.61;108358;1254;60197;-62
2024/02/05 04:57:39;;;;;;;1.20;1.00;;;;;;;10.14;90.36;97543.88;108376;1254;74126;-63
2024/02/05 05:00:25;;;;;;;1.30;1.20;;;;;;;9.72;94.47;97535.96;108362;1251;69965;-65
2024/02/05 05:03:21;;;;;;;1.70;1.20;;;;;;;9.47;97.95;97542.45;108333;1251;72976;-63
2024/02/05 05:06:26;;;;;;;2.00;1.30;;;;;;;9.41;99.98;97541.89;108398;1254;60576;-62
2024/02/05 05:09:37;;;;;;;1.30;0.70;;;;;;;9.43;100.00;97533.16;108392;1251;59857;-62
2024/02/05 05:12:49;;;;;;;1.30;1.00;;;;;;;9.56;99.54;97536.56;108339;1257;73559;-62
2024/02/05 05:15:32;;;;;;;1.60;0.90;;;;;;;9.50;99.66;97539.46;108365;1251;69211;-63
2024/02/05 05:18:41;;;;;;;1.40;1.00;;;;;;;9.47;100.00;97541.27;108347;1256;72781;-62
2024/02/05 05:21:52;;;;;;;1.70;1.10;;;;;;;9.29;100.00;97537.42;108283;1253;60694;-62
2024/02/05 05:25:08;;;;;;;1.00;0.90;;;;;;;9.48;100.00;97535.39;108361;1251;60092;-62
2024/02/05 05:28:19;;;;;;;3.00;1.10;;;;;;;9.47;100.00;97545.59;108377;1251;74278;-62
2024/02/05 05:31:30;;;;;;;1.40;0.90;;;;;;;9.40;100.00;97544.16;108350;1256;69312;-62
2024/02/05 05:34:41;;;;;;;3.40;1.10;;;;;;;9.50;100.00;97547.48;108343;1254;72941;-63
2024/02/05 05:37:53;;;;;;;2.80;1.10;;;;;;;9.41;100.00;97536.27;108357;1251;60683;-62
2024/02/05 05:41:05;;;;;;;1.40;0.90;;;;;;;9.44;100.00;97539.69;108447;1254;59700;-62
2024/02/05 05:44:16;;;;;;;3.10;1.10;;;;;;;9.59;100.00;97544.92;108407;1251;74185;-63
2024/02/05 05:47:27;;;;;;;2.40;0.90;;;;;;;10.05;96.28;97537.88;108422;1252;68919;-61
2024/02/05 05:50:38;;;;;;;1.80;1.00;;;;;;;9.48;99.28;97541.36;108396;1252;71232;-58
2024/02/05 05:57:00;;;;;;;0.80;0.80;;;;;;;9.17;100.00;97518.02;101236;1294;600875;-61
2024/02/05 06:00:09;;;;;;;1.10;0.60;;;;;;;9.14;100.00;97510.19;104029;1266;62882;-60
2024/02/05 06:03:33;;;;;;;0.60;0.50;;;;;;;9.34;100.00;97512.81;104365;1266;58851;-60
2024/02/05 06:06:29;;;;;;;0.90;0.80;;;;;;;9.22;100.00;97504.37;104075;1272;72125;-58
2024/02/05 06:09:35;;;;;;;0.50;0.50;;;;;;;9.18;100.00;97507.30;103134;1272;841017;-59
2024/02/05 06:12:47;;;;;;;0.80;0.70;;;;;;;9.23;100.00;97506.02;104454;1266;72416;-58
2024/02/05 06:15:59;;;;;;;0.70;0.40;;;;;;;9.25;100.00;97507.27;104393;1264;60577;-60
2024/02/05 06:19:11;;;;;;;1.10;0.70;;;;;;;9.49;98.59;97503.84;103948;1263;59781;-62
2024/02/05 06:22:22;;;;;;;0.80;0.80;;;;;;;9.10;99.84;97498.79;104425;1263;72486;-61
2024/02/05 06:25:34;;;;;;;3.00;0.50;;;;;;;8.94;100.00;97494.34;105441;1263;69611;-63
2024/02/05 06:28:46;;;;;;;0.50;0.50;;;;;;;8.75;99.84;97496.81;103993;1268;72924;-63
2024/02/05 06:31:57;;;;;;;0.50;0.30;;;;;;;8.62;99.90;97503.70;104107;1266;60581;-62
2024/02/05 06:35:40;;;;;;;0.40;0.40;;;;;;;8.82;95.31;97496.01;104131;1263;59742;-63
2024/02/05 06:38:52;;;;;;;0.20;0.20;;;;;;;8.72;95.58;97501.95;103942;1275;72859;-62
2024/02/05 06:42:04;;;;;;;0.50;0.50;;;;;;;8.57;96.12;97490.91;104879;1266;69036;-62
2024/02/05 06:45:16;;;;;;;0.40;0.40;;;;;;;8.66;94.69;97503.27;105210;1256;72383;-59
2024/02/05 06:48:28;;;;;;;0.90;0.40;;;;;;;8.56;94.89;97489.96;104983;1257;60615;-63
2024/02/05 06:51:42;;;;;;;0.40;0.40;;;;;;;8.48;95.42;97492.20;105368;1261;59684;-59
2024/02/05 06:54:53;;;;;;;0.30;0.30;;;;;;;8.13;99.98;97494.56;105491;1259;72879;-59
2024/02/05 06:57:34;;;;;;;0.40;0.40;;;;;;;8.01;100.00;97487.36;105379;1256;69252;-59
2024/02/05 07:00:20;;;;;;;0.30;0.30;;;;;;;8.03;100.00;97478.14;104484;1269;72500;-62
2024/02/05 07:06:18;;;;;;;0.30;0.30;;;;;;;7.28;100.00;97465.89;103097;1291;601008;-58
2024/02/05 07:09:30;;;;;;;0.40;0.30;;;;;;;8.05;100.00;97457.77;104625;1266;60705;-58
2024/02/05 07:12:41;;;;;;;0.70;0.30;;;;;;;8.11;100.00;97455.09;104874;1264;60119;-59
2024/02/05 07:15:53;;;;;;;0.60;0.20;;;;;;;8.10;100.00;97449.27;104523;1266;72991;-60
2024/02/05 07:19:05;;;;;;;0.40;0.40;;;;;;;8.15;100.00;97454.44;103431;1268;944240;-60
2024/02/05 07:22:17;;;;;;;0.50;0.30;;;;;;;8.16;100.00;97456.16;104799;1262;72357;-59
2024/02/05 07:25:29;;;;;;;0.40;0.40;;;;;;;8.02;100.00;97452.23;104609;1262;59652;-60
2024/02/05 07:28:42;;;;;;;0.30;0.30;;;;;;;7.96;100.00;97443.70;104820;1261;59766;-60
2024/02/05 07:31:56;;;;;;;0.60;0.30;;;;;;;8.06;100.00;97444.46;104306;1262;72093;-59
2024/02/05 07:35:08;;;;;;;0.50;0.50;;;;;;;8.15;100.00;97447.45;104445;1265;69547;-61
2024/02/05 07:38:19;;;;;;;0.40;0.30;;;;;;;8.27;100.00;97452.65;104489;1265;72727;-60
2024/02/05 07:41:31;;;;;;;0.30;0.30;;;;;;;8.17;100.00;97455.92;104346;1262;60762;-60
2024/02/05 07:44:43;;;;;;;0.40;0.40;;;;;;;8.17;100.00;97458.88;104326;1270;59921;-61
2024/02/05 07:47:20;;;;;;;0.40;0.40;;;;;;;8.32;99.94;97458.20;106829;1253;72870;-60
2024/02/05 07:50:26;;;;;;;0.40;0.40;;;;;;;8.45;98.68;97456.65;104694;1254;69730;-60
2024/02/05 07:54:01;;;;;;;0.60;0.50;;;;;;;8.62;95.67;97442.94;104828;1253;74226;-61
2024/02/05 07:57:06;;;;;;;2.20;0.40;;;;;;;8.48;96.93;97444.39;104562;1257;62923;-61
2024/02/05 08:00:18;;;;;;;0.60;0.50;;;;;;;8.43;98.00;97442.13;104917;1251;59739;-61
2024/02/05 08:03:30;;;;;;;0.80;0.80;;;;;;;8.34;99.17;97432.77;105697;1254;73364;-61
2024/02/05 08:06:23;;;;;;;0.80;0.70;;;;;;;8.41;97.77;97440.70;104430;1269;69128;-61
2024/02/05 08:09:00;;;;;;;1.10;1.00;;;;;;;8.45;98.40;97446.55;105442;1256;72889;-61
2024/02/05 08:12:06;;;;;;;1.40;1.00;;;;;;;8.44;97.78;97437.20;105393;1253;61225;-60
2024/02/05 08:15:18;;;;;;;1.80;1.30;;;;;;;8.43;98.60;97430.60;104394;1259;60377;-60
2024/02/05 08:19:00;;;;;;;1.80;1.50;;;;;;;8.21;100.00;97439.58;104751;1253;73256;-60
2024/02/05 08:23:02;;;;;;;1.50;1.10;;;;;;;8.19;100.00;97438.86;105258;1257;70859;-61
2024/02/05 08:26:14;;;;;;;1.50;0.80;;;;;;;8.19;100.00;97445.11;105264;1253;73304;-61
2024/02/05 08:29:25;;;;;;;1.80;1.00;;;;;;;8.00;100.00;97438.20;104579;1251;60814;-61
2024/02/05 08:32:38;;;;;;;0.90;0.90;;;;;;;8.10;100.00;97444.54;105456;1251;62530;-61
2024/02/05 08:35:51;;;;;;;2.00;1.10;;;;;;;8.06;100.00;97439.05;105438;1254;72831;-62
2024/02/05 08:39:03;;;;;;;1.20;1.00;;;;;;;8.01;100.00;97441.40;106232;1251;69639;-59
2024/02/05 08:42:14;;;;;;;2.60;1.40;;;;;;;8.11;100.00;97441.49;104799;1255;72895;-60
2024/02/05 08:45:17;;;;;;;1.70;1.50;;;;;;;8.32;100.00;97434.14;104496;1271;61540;-60
2024/02/05 08:48:25;;;;;;;1.40;1.20;;;;;;;8.21;100.00;97434.70;104946;1271;60753;-60
2024/02/05 08:51:36;;;;;;;2.60;1.70;;;;;;;8.05;100.00;97423.73;105352;1256;73550;-61
2024/02/05 08:54:51;;;;;;;1.40;1.30;;;;;;;7.79;100.00;97417.45;106612;1253;68752;-61
2024/02/05 08:58:06;;;;;;;2.20;1.60;;;;;;;7.69;100.00;97413.25;104928;1255;72371;-60
2024/02/05 09:01:19;;;;;;;1.50;1.40;;;;;;;7.76;100.00;97411.23;104469;1257;61178;-61
2024/02/05 09:04:02;;;;;;;1.50;1.10;;;;;;;7.98;100.00;97408.33;105480;1252;59645;-60
2024/02/05 09:06:38;;;;;;;0.80;0.70;;;;;;;8.11;100.00;97402.39;104685;1258;72914;-60
2024/02/05 09:09:44;;;;;;;0.80;0.80;;;;;;;7.75;100.00;97402.92;105655;1253;69458;-63
2024/02/05 09:12:56;;;;;;;1.10;0.50;;;;;;;7.65;100.00;97386.81;106565;1253;71884;-62
2024/02/05 09:16:02;;;;;;;1.60;1.20;;;;;;;7.70;100.00;97375.20;104655;1258;60653;-61
2024/02/05 09:19:13;;;;;;;1.80;1.70;;;;;;;7.85;100.00;97365.10;105162;1255;59936;-59
2024/02/05 09:22:25;;;;;;;1.90;1.80;;;;;;;7.96;100.00;97350.52;104989;1257;71864;-60
2024/02/05 09:25:42;;;;;;;1.50;1.40;;;;;;;8.11;100.00;97371.52;104703;1257;69803;-60
2024/02/05 09:28:54;;;;;;;2.30;1.40;;;;;;;8.35;100.00;97374.90;105033;1258;72294;-60
2024/02/05 09:32:06;;;;;;;1.50;1.40;;;;;;;8.44;100.00;97383.02;104294;1257;60383;-60
2024/02/05 09:35:17;;;;;;;1.50;1.40;;;;;;;8.49;100.00;97384.28;104538;1257;60664;-60
2024/02/05 09:38:30;;;;;;;1.50;1.40;;;;;;;8.47;99.98;97388.07;104373;1256;73010;-60
2024/02/05 09:41:42;;;;;;;2.10;1.90;;;;;;;8.29;100.00;97395.90;104658;1256;69560;-61
2024/02/05 09:44:54;;;;;;;2.50;2.30;;;;;;;8.02;100.00;97375.45;105105;1253;73396;-60
2024/02/05 09:48:06;;;;;;;2.80;2.10;;;;;;;8.13;100.00;97390.60;105966;1254;60782;-60
2024/02/05 09:51:34;;;;;;;2.10;1.90;;;;;;;8.05;100.00;97388.66;104955;1253;59724;-62
2024/02/05 09:54:47;;;;;;;1.70;1.60;;;;;;;8.00;100.00;97384.80;105277;1252;73529;-60
2024/02/05 09:57:52;;;;;;;1.30;1.20;;;;;;;7.91;100.00;97382.28;105128;1258;69762;-62
2024/02/05 10:00:39;;;;;;;1.40;1.30;;;;;;;7.70;100.00;97375.33;106005;1256;72557;-60
2024/02/05 10:03:44;;;;;;;1.50;1.40;;;;;;;7.67;100.00;97376.04;105675;1253;63653;-59
2024/02/05 10:06:44;;;;;;;1.60;1.40;;;;;;;7.69;100.00;97363.02;105472;1253;59690;-60
2024/02/05 10:09:51;;;;;;;1.50;1.30;;;;;;;7.65;100.00;97349.02;105671;1258;73968;-60
2024/02/05 10:13:04;;;;;;;2.20;2.00;;;;;;;7.83;100.00;97332.59;104502;1258;68282;-59
2024/02/05 10:16:15;;;;;;;2.80;2.50;;;;;;;7.85;100.00;97341.21;104327;1254;72531;-61
2024/02/05 10:19:04;;;;;;;2.60;1.80;;;;;;;7.84;100.00;97332.73;105373;1253;61227;-59
2024/02/05 10:22:10;;;;;;;1.90;1.60;;;;;;;7.91;100.00;97333.45;104715;1256;59633;-60
2024/02/05 10:26:02;;;;;;;2.20;1.60;;;;;;;7.93;100.00;97330.86;105457;1257;73882;-63
2024/02/05 10:29:14;;;;;;;1.50;1.40;;;;;;;7.97;100.00;97334.63;104569;1251;69607;-61
2024/02/05 10:32:26;;;;;;;2.40;1.70;;;;;;;8.03;100.00;97333.89;105008;1253;72867;-62
2024/02/05 10:35:40;;;;;;;1.50;1.40;;;;;;;7.81;100.00;97331.14;105397;1251;62234;-62
2024/02/05 10:38:51;;;;;;;1.50;1.40;;;;;;;7.90;100.00;97318.31;105070;1254;60315;-61
2024/02/05 10:42:04;;;;;;;2.50;1.10;;;;;;;7.82;100.00;97325.32;105711;1255;73990;-61
2024/02/05 10:45:16;;;;;;;1.30;1.10;;;;;;;7.86;100.00;97320.70;105210;1257;70565;-61
2024/02/05 10:48:28;;;;;;;1.30;1.20;;;;;;;7.87;100.00;97328.12;105069;1257;73417;-60
2024/02/05 10:52:17;;;;;;;1.40;1.20;;;;;;;8.13;100.00;97302.10;105048;1253;61342;-60
2024/02/05 10:55:28;;;;;;;2.50;1.50;;;;;;;8.12;100.00;97293.41;105597;1257;59861;-59
2024/02/05 10:58:43;;;;;;;1.20;1.10;;;;;;;7.84;100.00;97272.90;104693;1256;73175;-60
2024/02/05 11:01:24;;;;;;;1.50;1.30;;;;;;;7.84;100.00;97277.97;104651;1256;68336;-59
2024/02/05 11:04:31;;;;;;;1.00;0.90;;;;;;;7.80;100.00;97263.60;104295;1272;72536;-60
2024/02/05 11:07:45;;;;;;;1.30;1.10;;;;;;;7.88;100.00;97255.55;104860;1253;60771;-60
2024/02/05 11:10:55;;;;;;;1.20;0.90;;;;;;;8.07;100.00;97253.00;105101;1254;59997;-61
2024/02/05 11:14:08;;;;;;;0.80;0.80;;;;;;;8.05;100.00;97261.84;105385;1253;72841;-61
2024/02/05 11:17:21;;;;;;;0.80;0.80;;;;;;;7.95;100.00;97272.65;104916;1258;69046;-60
2024/02/05 11:20:32;;;;;;;0.90;0.70;;;;;;;8.07;100.00;97274.30;104721;1258;72875;-60
2024/02/05 11:23:44;;;;;;;0.70;0.70;;;;;;;8.23;100.00;97260.06;106580;1255;61277;-60
2024/02/05 11:26:56;;;;;;;0.80;0.80;;;;;;;8.27;100.00;97255.77;104493;1266;60115;-61
2024/02/05 11:30:38;;;;;;;0.80;0.50;;;;;;;8.22;100.00;97247.41;105176;1257;72851;-60
2024/02/05 11:33:37;;;;;;;0.90;0.80;;;;;;;8.27;100.00;97245.27;104783;1256;70332;-60
2024/02/05 11:36:43;;;;;;;0.90;0.70;;;;;;;8.31;100.00;97247.25;104714;1253;72134;-60
2024/02/05 11:39:55;;;;;;;0.90;0.80;;;;;;;8.32;100.00;97253.66;104656;1255;60656;-60
2024/02/05 11:42:42;;;;;;;1.50;1.10;;;;;;;8.27;100.00;97262.36;104449;1256;59726;-60
2024/02/05 11:45:47;;;;;;;1.70;1.20;;;;;;;8.37;100.00;97263.42;104816;1258;73118;-59
2024/02/05 11:48:59;;;;;;;1.30;1.20;;;;;;;8.42;100.00;97269.38;104618;1257;69548;-61
2024/02/05 11:52:12;;;;;;;0.90;0.90;;;;;;;8.41;100.00;97282.66;104801;1257;71482;-60
2024/02/05 11:55:25;;;;;;;0.90;0.80;;;;;;;8.62;100.00;97282.10;105437;1253;62832;-61
2024/02/05 11:58:37;;;;;;;0.70;0.70;;;;;;;8.55;100.00;97278.23;104959;1259;60097;-61
2024/02/05 12:01:49;;;;;;;1.00;1.00;;;;;;;8.66;100.00;97277.58;105404;1254;73058;-60
2024/02/05 12:05:01;;;;;;;1.70;1.00;;;;;;;8.60;100.00;97279.08;104977;1260;69720;-59
2024/02/05 12:08:14;;;;;;;1.20;1.00;;;;;;;8.70;100.00;97284.95;104806;1258;72908;-60
2024/02/05 12:11:25;;;;;;;1.20;1.10;;;;;;;8.74;100.00;97305.14;104706;1259;60894;-60
2024/02/05 12:14:02;;;;;;;1.20;1.00;;;;;;;8.78;100.00;97305.73;104393;1258;59817;-60
2024/02/05 12:17:08;;;;;;;1.50;0.90;;;;;;;8.70;100.00;97300.89;104307;1257;73274;-62
2024/02/05 12:20:22;;;;;;;1.80;0.80;;;;;;;8.68;100.00;97310.26;106009;1251;71691;-60
2024/02/05 12:23:33;;;;;;;0.70;0.60;;;;;;;8.69;100.00;97316.86;104697;1255;71589;-61
2024/02/05 12:26:46;;;;;;;1.80;0.90;;;;;;;8.82;100.00;97322.75;105326;1258;61047;-60
2024/02/05 12:30:00;;;;;;;1.10;0.90;;;;;;;8.77;100.00;97322.57;105284;1253;60705;-60
2024/02/05 12:33:15;;;;;;;1.20;0.70;;;;;;;8.92;100.00;97315.73;105128;1253;72489;-63
2024/02/05 12:36:28;;;;;;;0.80;0.80;;;;;;;9.01;100.00;97311.53;105399;1256;70186;-61
2024/02/05 12:39:44;;;;;;;1.20;1.10;;;;;;;9.19;100.00;97309.02;105256;1253;71538;-63
2024/02/05 12:42:53;;;;;;;1.00;0.90;;;;;;;9.39;100.00;97300.73;104642;1274;60708;-63
2024/02/05 12:46:09;;;;;;;1.20;0.70;;;;;;;9.35;99.99;97300.30;104495;1265;60079;-62
2024/02/05 12:49:02;;;;;;;1.30;1.00;;;;;;;9.66;99.02;97307.20;104975;1258;75426;-61
2024/02/05 12:52:08;;;;;;;1.30;1.10;;;;;;;9.83;97.04;97309.42;104882;1253;70434;-61
2024/02/05 12:55:20;;;;;;;1.10;0.60;;;;;;;9.75;93.74;97324.20;105408;1255;72298;-62
2024/02/05 12:58:31;;;;;;;1.90;0.80;;;;;;;9.62;93.63;97319.58;105861;1257;60726;-62
2024/02/05 13:01:11;;;;;;;1.30;1.00;;;;;;;9.83;91.46;97331.80;105471;1256;59777;-64
2024/02/05 13:04:01;;;;;;;1.60;1.10;;;;;;;9.74;91.33;97334.26;105804;1254;75232;-62
2024/02/05 13:07:13;;;;;;;1.60;1.00;;;;;;;9.69;91.43;97334.31;105851;1257;71706;-61
2024/02/05 13:10:29;;;;;;;2.10;1.30;;;;;;;9.69;89.71;97339.91;105546;1253;72610;-61
2024/02/05 13:13:40;;;;;;;3.70;1.40;;;;;;;9.72;89.05;97342.79;104500;1260;61255;-61
2024/02/05 13:16:55;;;;;;;1.80;1.10;;;;;;;9.77;87.58;97352.94;104575;1259;60443;-62
2024/02/05 13:20:06;;;;;;;9.70;3.20;;;;;;;9.79;87.32;97359.95;105283;1253;74012;-61
2024/02/05 13:23:22;;;;;;;4.80;2.30;;;;;;;10.00;83.70;97362.76;104682;1253;70075;-62
2024/02/05 13:30:56;;;;;;;0.70;0.70;;;;;;;9.99;83.37;97378.55;104350;1260;63697;-61
2024/02/05 13:33:46;;;;;;;1.10;0.90;;;;;;;9.95;84.22;97374.34;105094;1253;60511;-61
2024/02/05 13:36:58;;;;;;;1.90;0.60;;;;;;;9.87;84.06;97368.10;104431;1253;73588;-61
2024/02/05 13:40:10;;;;;;;2.30;0.90;;;;;;;10.07;82.37;97368.13;105041;1253;69723;-61
2024/02/05 13:43:22;;;;;;;1.40;0.70;;;;;;;10.12;82.05;97375.25;105143;1259;72509;-61
2024/02/05 13:46:03;;;;;;;1.80;0.80;;;;;;;10.14;81.05;97368.47;104457;1257;61165;-61
2024/02/05 13:49:03;;;;;;;0.90;0.70;;;;;;;10.19;80.23;97369.89;104580;1257;62345;-61
2024/02/05 13:52:13;;;;;;;1.70;0.70;;;;;;;10.16;79.99;97380.59;104736;1257;73197;-60
2024/02/05 13:55:25;;;;;;;0.60;0.50;;;;;;;10.21;79.76;97388.98;104587;1251;69186;-62
2024/02/05 13:58:37;;;;;;;1.20;0.40;;;;;;;10.16;79.32;97389.69;104462;1259;72652;-61
2024/02/05 14:01:52;;;;;;;0.70;0.70;;;;;;;10.03;80.30;97396.48;104411;1259;61243;-61
2024/02/05 14:05:04;;;;;;;0.80;0.60;;;;;;;9.96;81.30;97400.33;104871;1267;60540;-61
2024/02/05 14:08:17;;;;;;;0.80;0.60;;;;;;;9.60;83.75;97405.65;104814;1256;72915;-61
2024/02/05 14:11:29;;;;;;;0.80;0.60;;;;;;;9.59;82.65;97414.23;104653;1257;69969;-61
2024/02/05 14:14:01;;;;;;;2.90;1.10;;;;;;;9.43;84.56;97412.30;104714;1258;72774;-61
2024/02/05 14:17:13;;;;;;;1.20;0.80;;;;;;;9.45;84.17;97417.78;105445;1257;61290;-61
2024/02/05 14:20:29;;;;;;;2.80;0.80;;;;;;;9.41;84.82;97433.65;105417;1257;60593;-61
2024/02/05 14:23:43;;;;;;;1.80;0.70;;;;;;;9.33;84.97;97433.67;104748;1259;73368;-61
2024/02/05 14:26:15;;;;;;;1.30;0.90;;;;;;;9.41;83.01;97433.47;104786;1257;70056;-62
2024/02/05 14:29:08;;;;;;;1.10;0.80;;;;;;;9.37;81.87;97437.59;104390;1258;73231;-61
2024/02/05 14:32:20;;;;;;;1.00;0.60;;;;;;;9.40;80.37;97445.73;104505;1254;62079;-61
2024/02/05 14:35:04;;;;;;;2.30;0.60;;;;;;;9.17;80.46;97450.73;105021;1258;60642;-62
2024/02/05 14:38:19;;;;;;;0.60;0.60;;;;;;;9.41;80.13;97452.52;104557;1273;72915;-60
2024/02/05 14:41:31;;;;;;;1.60;1.10;;;;;;;9.36;79.04;97454.27;104680;1257;69545;-60
2024/02/05 14:44:44;;;;;;;1.00;0.70;;;;;;;9.41;76.98;97453.89;104943;1257;72534;-64
2024/02/05 14:47:57;;;;;;;0.80;0.80;;;;;;;9.21;73.51;97452.20;104288;1251;61871;-60
2024/02/05 14:51:09;;;;;;;2.20;1.10;;;;;;;9.31;72.35;97462.28;105685;1257;62246;-60
2024/02/05 14:54:21;;;;;;;1.20;0.70;;;;;;;9.12;72.46;97472.21;104726;1259;73964;-61